Terminal Aerodrome Forecast
Issued by NWS

Home | Current Version | Previous Version | Text Only | Print | Product List | Glossary On
Versions: 1 2 3 4 5 6 7 8 9 10 11 12 13 14 15 16 17 18 19
000
FTAK31 PAJN 010537
TAFAYA
TAF
PAYA 010537Z 0106/0206 VRB03KT P6SM -SHRA SCT015 BKN025 OVC035
      TEMPO 0108/0112 5SM -SHRA OVC015
     FM011200 10006KT P6SM -SHRA SCT015 OVC022
     FM011800 10011KT P6SM -RA OVC025 WS015/13030KT
     FM012100 10014KT 5SM -RA BR OVC018 WS015/13040KT
     FM020100 13015G25KT 3SM RA BR SCT006 OVC015 WS015/15040KT
      AMD LTD TO CLD VIS AND WIND 0106/0109=

USA.gov is the U.S. government's official web portal to all federal, state and local government web resources and services.